createdAt,value
2018-02-05T00:02:03.282Z,1.3
2018-02-05T00:07:03.003Z,1.3
2018-02-05T00:12:03.212Z,1.3
2018-02-05T00:17:03.335Z,1.4
2018-02-05T00:22:02.925Z,1.4
2018-02-05T00:27:03.056Z,1.6
2018-02-05T00:32:03.281Z,1.5
2018-02-05T00:37:03.131Z,1.4
2018-02-05T00:42:03.171Z,1.4
2018-02-05T00:47:03.180Z,1.5
2018-02-05T00:52:02.755Z,1.6
2018-02-05T00:57:02.908Z,1.6
2018-02-05T01:02:03.095Z,1.7
2018-02-05T01:07:02.925Z,1.7
2018-02-05T01:12:03.076Z,1.9
2018-02-05T01:17:03.168Z,1.8
2018-02-05T01:22:03.361Z,1.9
2018-02-05T01:27:03.484Z,2.0
2018-02-05T01:32:03.480Z,2.1
2018-02-05T01:37:03.033Z,2.0
2018-02-05T01:42:03.112Z,2.1
2018-02-05T01:47:03.182Z,2.1
2018-02-05T01:52:03.365Z,2.1
2018-02-05T01:57:03.287Z,2.0
2018-02-05T02:02:03.562Z,2.1
2018-02-05T02:07:02.850Z,2.0
2018-02-05T02:12:03.120Z,2.1
2018-02-05T02:17:03.277Z,2.1
2018-02-05T02:22:02.741Z,2.1
2018-02-05T02:27:02.952Z,2.1
2018-02-05T02:32:02.998Z,2.1
2018-02-05T02:37:03.072Z,2.1
2018-02-05T02:42:03.138Z,2.1
2018-02-05T02:47:03.138Z,2.2
2018-02-05T02:52:02.723Z,2.2
2018-02-05T02:57:02.879Z,2.2
2018-02-05T03:02:03.065Z,2.3
2018-02-05T03:07:03.058Z,2.3
2018-02-05T03:12:03.225Z,2.3
2018-02-05T03:17:03.274Z,2.2
2018-02-05T03:22:03.371Z,2.2
2018-02-05T03:27:03.485Z,2.2
2018-02-05T03:32:03.547Z,2.2
2018-02-05T03:37:03.376Z,2.2
2018-02-05T03:42:03.405Z,2.3
2018-02-05T03:47:03.473Z,2.3
2018-02-05T03:52:02.747Z,2.3
2018-02-05T03:57:02.777Z,2.3
2018-02-05T04:02:02.978Z,2.2
2018-02-05T04:07:03.239Z,2.2
2018-02-05T04:12:03.472Z,2.1
2018-02-05T04:17:03.639Z,2.2
2018-02-05T04:22:02.794Z,2.3
2018-02-05T04:27:02.998Z,2.2
2018-02-05T04:32:03.156Z,2.2
2018-02-05T04:37:03.198Z,2.2
2018-02-05T04:42:03.287Z,2.2
2018-02-05T04:47:03.448Z,2.1
2018-02-05T04:52:03.521Z,2.0
2018-02-05T04:57:02.656Z,1.9
2018-02-05T05:02:03.006Z,1.8
2018-02-05T05:07:03.075Z,1.8
2018-02-05T05:12:03.286Z,1.8
2018-02-05T05:17:03.455Z,1.8
2018-02-05T05:22:03.652Z,1.8
2018-02-05T05:27:02.845Z,1.8
2018-02-05T05:32:03.004Z,1.8
2018-02-05T05:37:03.091Z,2.0
2018-02-05T05:42:03.236Z,2.0
2018-02-05T05:47:03.261Z,2.0
2018-02-05T05:52:03.310Z,2.1
2018-02-05T05:57:03.327Z,2.1
2018-02-05T06:02:03.514Z,2.0
2018-02-05T06:07:03.538Z,2.0
2018-02-05T06:12:02.887Z,2.0
2018-02-05T06:17:12.319Z,2.0
2018-02-05T06:22:03.238Z,2.0
2018-02-05T06:27:03.533Z,1.9
2018-02-05T06:32:13.027Z,2.0
2018-02-05T06:37:03.312Z,1.9
2018-02-05T06:42:03.413Z,1.9
2018-02-05T06:47:13.257Z,1.9
2018-02-05T06:52:03.472Z,1.9
2018-02-05T06:57:02.851Z,1.9
2018-02-05T07:02:13.592Z,2.0
2018-02-05T07:07:03.397Z,2.0
2018-02-05T07:12:02.781Z,1.9
2018-02-05T07:17:23.082Z,2.0
2018-02-05T07:22:03.288Z,2.1
2018-02-05T07:27:03.514Z,2.2
2018-02-05T07:32:14.078Z,2.1
2018-02-05T07:37:02.764Z,2.2
2018-02-05T07:42:02.932Z,2.3
2018-02-05T07:47:13.484Z,2.3
2018-02-05T07:52:03.311Z,2.3
2018-02-05T07:57:03.464Z,2.3
2018-02-05T08:02:12.891Z,5.0
2018-02-05T08:07:02.970Z,2.6
2018-02-05T08:12:03.236Z,3.0
2018-02-05T08:17:13.903Z,3.1
2018-02-05T08:22:03.625Z,3.2
2018-02-05T08:27:02.836Z,3.1
2018-02-05T08:32:13.486Z,3.2
2018-02-05T08:37:03.191Z,3.2
2018-02-05T08:42:03.397Z,3.3
2018-02-05T08:47:13.941Z,3.7
2018-02-05T08:52:02.680Z,3.7
2018-02-05T08:57:02.905Z,3.9
2018-02-05T09:02:13.540Z,3.9
2018-02-05T09:07:03.467Z,4.0
2018-02-05T09:12:03.664Z,4.0
2018-02-05T09:17:13.503Z,4.2
2018-02-05T09:22:03.111Z,4.5
2018-02-05T09:27:03.344Z,5.5
2018-02-05T09:32:13.845Z,5.5
2018-02-05T09:37:02.714Z,6.4
2018-02-05T09:42:02.926Z,6.4
2018-02-05T09:47:13.521Z,7.5
2018-02-05T09:52:03.399Z,7.4
2018-02-05T09:57:03.605Z,7.4
2018-02-05T10:02:13.953Z,7.6
2018-02-05T10:07:02.802Z,7.7
2018-02-05T10:12:03.053Z,8.0
2018-02-05T10:17:13.948Z,8.2
2018-02-05T10:22:03.508Z,8.1
2018-02-05T10:27:03.558Z,8.0
2018-02-05T10:32:13.165Z,8.2
2018-02-05T10:37:02.888Z,8.2
2018-02-05T10:42:03.042Z,8.2
2018-02-05T10:47:13.530Z,8.2
2018-02-05T10:52:03.425Z,8.5
2018-02-05T10:57:03.579Z,9.2
2018-02-05T11:02:13.220Z,9.4
2018-02-05T11:07:03.174Z,9.1
2018-02-05T11:12:03.574Z,9.1
2018-02-05T11:17:13.833Z,8.8
2018-02-05T11:22:02.764Z,9.1
2018-02-05T11:27:03.002Z,9.1
2018-02-05T11:32:13.341Z,8.8
2018-02-05T11:37:03.342Z,8.4
2018-02-05T11:42:03.495Z,8.1
2018-02-05T11:47:13.116Z,8.0
2018-02-05T11:52:02.880Z,8.9
2018-02-05T11:57:03.117Z,8.9
2018-02-05T12:02:17.785Z,10.0
2018-02-05T12:07:03.582Z,10.6
2018-02-05T12:12:03.030Z,10.8
2018-02-05T12:17:13.862Z,10.8
2018-02-05T12:22:03.492Z,10.8
2018-02-05T12:27:03.643Z,10.8
2018-02-05T12:32:13.036Z,10.6
2018-02-05T12:37:02.918Z,10.3
2018-02-05T12:42:03.089Z,10.3
2018-02-05T12:47:13.894Z,10.1
2018-02-05T12:52:03.526Z,9.8
2018-02-05T12:57:02.652Z,9.8
2018-02-05T13:02:12.979Z,10.1
2018-02-05T13:07:03.366Z,10.1
2018-02-05T13:12:03.520Z,10.6
2018-02-05T13:17:13.216Z,10.8
2018-02-05T13:22:03.007Z,10.8
2018-02-05T13:27:03.252Z,11.4
2018-02-05T13:32:13.837Z,11.3
2018-02-05T13:37:02.636Z,11.3
2018-02-05T13:42:02.793Z,10.8
2018-02-05T13:47:13.527Z,10.0
2018-02-05T13:52:03.177Z,10.0
2018-02-05T13:57:03.476Z,9.9
2018-02-05T14:02:13.577Z,9.7
2018-02-05T14:07:02.955Z,9.5
2018-02-05T14:12:03.243Z,9.5
2018-02-05T14:17:13.897Z,9.3
2018-02-05T14:22:03.534Z,9.2
2018-02-05T14:27:02.752Z,9.1
2018-02-05T14:32:13.314Z,8.8
2018-02-05T14:37:03.228Z,8.8
2018-02-05T14:42:03.331Z,8.7
2018-02-05T14:47:13.445Z,8.7
2018-02-05T14:52:03.032Z,9.5
2018-02-05T14:57:03.243Z,10.5
2018-02-05T15:02:13.761Z,11.0
2018-02-05T15:07:02.733Z,12.3
2018-02-05T15:12:03.031Z,12.3
2018-02-05T15:17:13.227Z,14.1
2018-02-05T15:22:03.100Z,15.4
2018-02-05T15:27:03.277Z,15.7
2018-02-05T15:32:13.852Z,15.7
2018-02-05T15:37:03.599Z,15.0
2018-02-05T15:42:02.676Z,14.4
2018-02-05T15:47:13.301Z,13.9
2018-02-05T15:52:02.982Z,12.2
2018-02-05T15:57:03.103Z,12.1
2018-02-05T16:02:13.670Z,10.9
2018-02-05T16:07:03.525Z,8.2
2018-02-05T16:12:02.912Z,8.2
2018-02-05T16:17:13.551Z,6.6
2018-02-05T16:22:03.341Z,6.6
2018-02-05T16:27:03.644Z,5.8
2018-02-05T16:32:13.247Z,5.7
2018-02-05T16:37:03.330Z,5.4
2018-02-05T16:42:02.836Z,4.9
2018-02-05T16:47:13.082Z,4.7
2018-02-05T16:52:03.119Z,4.7
2018-02-05T16:57:03.229Z,4.5
2018-02-05T17:02:14.011Z,4.0
2018-02-05T17:07:02.817Z,3.8
2018-02-05T17:12:03.187Z,3.7
2018-02-05T17:17:03.508Z,3.5
2018-02-05T17:22:03.488Z,3.5
2018-02-05T17:27:03.618Z,3.4
2018-02-05T17:32:02.808Z,3.3
2018-02-05T17:37:02.919Z,3.2
2018-02-05T17:42:03.046Z,3.0
2018-02-05T17:47:03.200Z,2.9
2018-02-05T17:52:03.258Z,2.9
2018-02-05T17:57:03.301Z,2.9
2018-02-05T18:02:03.510Z,2.8
2018-02-05T18:07:02.781Z,2.7
2018-02-05T18:12:02.997Z,2.7
2018-02-05T18:17:03.211Z,2.7
2018-02-05T18:22:03.324Z,2.6
2018-02-05T18:27:03.320Z,2.5
2018-02-05T18:32:03.420Z,2.5
2018-02-05T18:37:03.587Z,2.5
2018-02-05T18:42:02.690Z,2.4
2018-02-05T18:47:02.867Z,2.4
2018-02-05T18:52:03.013Z,2.4
2018-02-05T18:57:03.072Z,2.3
2018-02-05T19:02:03.247Z,2.2
2018-02-05T19:07:03.404Z,2.2
2018-02-05T19:12:02.708Z,2.2
2018-02-05T19:17:03.168Z,2.2
2018-02-05T19:22:03.220Z,2.2
2018-02-05T19:27:03.210Z,2.2
2018-02-05T19:32:03.273Z,2.1
2018-02-05T19:37:03.434Z,2.0
2018-02-05T19:42:03.387Z,1.9
2018-02-05T19:47:03.518Z,1.6
2018-02-05T19:52:02.741Z,1.5
2018-02-05T19:57:02.774Z,1.4
2018-02-05T20:02:03.086Z,1.3
2018-02-05T20:07:03.162Z,1.3
2018-02-05T20:12:03.460Z,1.2
2018-02-05T20:17:03.585Z,1.2
2018-02-05T20:22:02.721Z,1.2
2018-02-05T20:27:02.887Z,1.3
2018-02-05T20:32:03.044Z,1.3
2018-02-05T20:37:03.265Z,1.3
2018-02-05T20:42:03.147Z,1.3
2018-02-05T20:47:03.362Z,1.2
2018-02-05T20:52:03.488Z,1.3
2018-02-05T20:57:03.639Z,1.3
2018-02-05T21:02:03.023Z,1.2
2018-02-05T21:07:03.032Z,1.2
2018-02-05T21:12:03.387Z,1.3
2018-02-05T21:17:03.983Z,1.3
2018-02-05T21:22:02.752Z,1.5
2018-02-05T21:27:02.903Z,1.5
2018-02-05T21:32:03.095Z,1.5
2018-02-05T21:37:03.173Z,1.5
2018-02-05T21:42:03.196Z,1.6
2018-02-05T21:47:03.331Z,1.6
2018-02-05T21:52:03.370Z,1.4
2018-02-05T21:57:03.414Z,1.3
2018-02-05T22:02:03.570Z,1.2
2018-02-05T22:07:02.948Z,1.1
2018-02-05T22:12:03.269Z,1.1
2018-02-05T22:17:03.372Z,1.1
2018-02-05T22:22:03.532Z,1.1
2018-02-05T22:27:03.683Z,1.0
2018-02-05T22:32:02.848Z,1.2
2018-02-05T22:37:02.905Z,1.3
2018-02-05T22:42:03.063Z,1.2
2018-02-05T22:47:03.232Z,1.2
2018-02-05T22:52:03.298Z,1.2
2018-02-05T22:57:03.300Z,1.1
2018-02-05T23:02:03.597Z,1.2
2018-02-05T23:07:03.430Z,1.1
2018-02-05T23:12:03.581Z,1.1
2018-02-05T23:22:03.554Z,1.1
2018-02-05T23:27:03.260Z,1.1
2018-02-05T23:32:03.387Z,1.0
2018-02-05T23:37:03.438Z,1.0
2018-02-05T23:42:03.462Z,0.9
2018-02-05T23:47:03.518Z,1.0
2018-02-05T23:52:03.085Z,1.0
2018-02-05T23:57:03.146Z,1.1
